createdAt,value
2023-04-15T00:01:20.005Z,100941.59
2023-04-15T00:03:48.986Z,100948.53
2023-04-15T00:06:17.802Z,100954.56
2023-04-15T00:08:46.266Z,100955.56
2023-04-15T00:11:15.358Z,100964.41
2023-04-15T00:13:44.275Z,100967.97
2023-04-15T00:16:14.503Z,100973.41
2023-04-15T00:18:43.123Z,100978.94
2023-04-15T00:21:11.731Z,100985.22
2023-04-15T00:23:40.253Z,100990.75
2023-04-15T00:26:08.921Z,100991.66
2023-04-15T00:28:37.561Z,101000.06
2023-04-15T00:31:06.221Z,101002.66
2023-04-15T00:33:37.652Z,101007.16
2023-04-15T00:36:07.271Z,101000.13
2023-04-15T00:38:38.224Z,101000.56
2023-04-15T00:41:07.987Z,101001.03
2023-04-15T00:43:36.680Z,101001.28
2023-04-15T00:46:07.297Z,101004.19
2023-04-15T00:48:39.197Z,101008.22
2023-04-15T00:51:09.839Z,101006.28
2023-04-15T00:53:38.589Z,101008.75
2023-04-15T00:56:08.141Z,101010.66
2023-04-15T00:58:37.608Z,101006.41
2023-04-15T01:01:06.770Z,101007.91
2023-04-15T01:03:37.506Z,101010.34
2023-04-15T01:06:06.333Z,101015.19
2023-04-15T01:08:34.914Z,101018.88
2023-04-15T01:11:04.790Z,101022.34
2023-04-15T01:13:35.942Z,101035.44
2023-04-15T01:16:05.245Z,101034.44
2023-04-15T01:18:34.060Z,101038.94
2023-04-15T01:21:04.291Z,101038.75
2023-04-15T01:23:33.261Z,101035.22
2023-04-15T01:26:03.962Z,101044.06
2023-04-15T01:28:33.352Z,101046.91
2023-04-15T01:31:12.671Z,101042.84
2023-04-15T01:33:42.936Z,101050.06
2023-04-15T01:36:11.880Z,101050.81
2023-04-15T01:38:41.748Z,101052.81
2023-04-15T01:41:11.821Z,101058.06
2023-04-15T01:43:40.337Z,101060.75
2023-04-15T01:46:08.804Z,101062.50
2023-04-15T01:48:37.623Z,101069.50
2023-04-15T01:51:07.807Z,101068.59
2023-04-15T01:53:36.243Z,101073.97
2023-04-15T01:56:04.901Z,101075.66
2023-04-15T01:58:34.926Z,101082.88
2023-04-15T02:01:04.371Z,101094.13
2023-04-15T02:03:33.181Z,101105.72
2023-04-15T02:06:01.920Z,101104.03
2023-04-15T02:08:30.457Z,101105.00
2023-04-15T02:10:59.149Z,101107.78
2023-04-15T02:13:27.595Z,101107.00
2023-04-15T02:15:59.527Z,101102.78
2023-04-15T02:18:28.118Z,101105.53
2023-04-15T02:20:57.458Z,101119.44
2023-04-15T02:23:26.559Z,101118.09
2023-04-15T02:25:55.438Z,101110.59
2023-04-15T02:28:24.048Z,101114.19
2023-04-15T02:30:53.698Z,101116.06
2023-04-15T02:33:23.899Z,101111.59
2023-04-15T02:35:53.551Z,101115.13
2023-04-15T02:38:22.133Z,101112.38
2023-04-15T02:40:51.364Z,101116.59
2023-04-15T02:43:20.195Z,101121.63
2023-04-15T02:45:49.524Z,101127.00
2023-04-15T02:48:19.753Z,101125.31
2023-04-15T02:50:49.731Z,101125.47
2023-04-15T02:53:18.305Z,101133.56
2023-04-15T02:55:46.926Z,101130.19
2023-04-15T02:58:15.530Z,101135.41
2023-04-15T03:00:44.068Z,101135.44
2023-04-15T03:03:12.757Z,101136.34
2023-04-15T03:05:41.687Z,101152.06
2023-04-15T03:08:11.655Z,101153.72
2023-04-15T03:10:40.212Z,101158.50
2023-04-15T03:13:09.025Z,101166.28
2023-04-15T03:15:37.805Z,101159.41
2023-04-15T03:18:06.506Z,101165.50
2023-04-15T03:20:36.163Z,101167.31
2023-04-15T03:23:04.752Z,101171.78
2023-04-15T03:25:35.923Z,101185.75
2023-04-15T03:28:04.743Z,101189.16
2023-04-15T03:30:33.295Z,101190.19
2023-04-15T03:33:02.222Z,101192.81
2023-04-15T03:35:31.225Z,101198.97
2023-04-15T03:37:59.862Z,101195.69
2023-04-15T03:40:28.532Z,101206.28
2023-04-15T03:42:58.786Z,101202.75
2023-04-15T03:45:27.517Z,101209.16
2023-04-15T03:47:57.397Z,101216.16
2023-04-15T03:50:29.240Z,101215.47
2023-04-15T03:52:57.629Z,101221.63
2023-04-15T03:55:26.253Z,101229.53
2023-04-15T03:57:54.790Z,101227.88
2023-04-15T04:00:24.861Z,101234.94
2023-04-15T04:02:53.687Z,101236.53
2023-04-15T04:05:22.505Z,101236.53
2023-04-15T04:07:51.045Z,101228.81
2023-04-15T04:10:19.801Z,101235.72
2023-04-15T04:12:48.113Z,101234.03
2023-04-15T04:15:16.768Z,101235.06
2023-04-15T04:17:46.657Z,101238.53
2023-04-15T04:20:15.500Z,101236.81
2023-04-15T04:22:44.079Z,101242.16
2023-04-15T04:25:12.559Z,101245.69
2023-04-15T04:27:41.090Z,101257.84
2023-04-15T04:30:10.604Z,101258.66
2023-04-15T04:32:39.733Z,101255.13
2023-04-15T04:35:11.713Z,101267.34
2023-04-15T04:37:40.193Z,101257.66
2023-04-15T04:40:10.816Z,101263.06
2023-04-15T04:42:40.148Z,101273.53
2023-04-15T04:45:10.358Z,101273.59
2023-04-15T04:47:39.277Z,101277.88
2023-04-15T04:50:11.851Z,101277.06
2023-04-15T04:52:40.719Z,101282.38
2023-04-15T04:55:10.024Z,101284.16
2023-04-15T04:57:40.012Z,101284.16
2023-04-15T05:00:10.591Z,101286.84
2023-04-15T05:02:39.312Z,101286.84
2023-04-15T05:05:11.149Z,101294.81
2023-04-15T05:07:39.931Z,101288.69
2023-04-15T05:10:10.101Z,101298.41
2023-04-15T05:12:38.944Z,101297.56
2023-04-15T05:15:08.937Z,101307.88
2023-04-15T05:17:37.485Z,101317.63
2023-04-15T05:20:06.777Z,101320.16
2023-04-15T05:22:36.657Z,101322.84
2023-04-15T05:25:05.517Z,101326.22
2023-04-15T05:27:34.133Z,101333.03
2023-04-15T05:30:02.948Z,101340.72
2023-04-15T05:32:31.490Z,101345.03
2023-04-15T05:35:00.006Z,101350.25
2023-04-15T05:37:28.456Z,101352.00
2023-04-15T05:39:58.537Z,101354.56
2023-04-15T05:42:26.828Z,101365.19
2023-04-15T05:44:55.242Z,101364.41
2023-04-15T05:47:24.246Z,101368.84
2023-04-15T05:49:52.726Z,101373.16
2023-04-15T05:52:21.559Z,101375.78
2023-04-15T05:54:50.154Z,101377.41
2023-04-15T05:57:20.169Z,101376.53
2023-04-15T05:59:49.365Z,101381.75
2023-04-15T06:02:17.993Z,101387.75
2023-04-15T06:04:46.723Z,101390.25
2023-04-15T06:07:15.866Z,101397.19
2023-04-15T06:09:45.303Z,101406.78
2023-04-15T06:12:14.129Z,101412.81
2023-04-15T06:14:44.540Z,101408.38
2023-04-15T06:17:15.415Z,101403.84
2023-04-15T06:19:43.985Z,101413.25
2023-04-15T06:22:12.629Z,101420.09
2023-04-15T06:24:41.411Z,101422.56
2023-04-15T06:27:10.041Z,101426.88
2023-04-15T06:29:38.658Z,101424.88
2023-04-15T06:32:10.139Z,101428.19
2023-04-15T06:34:38.565Z,101435.78
2023-04-15T06:37:06.937Z,101436.44
2023-04-15T06:39:35.333Z,101446.72
2023-04-15T06:42:05.144Z,101454.41
2023-04-15T06:44:34.009Z,101455.09
2023-04-15T06:47:03.676Z,101461.00
2023-04-15T06:49:33.880Z,101467.75
2023-04-15T06:52:02.583Z,101472.97
2023-04-15T06:54:31.113Z,101477.19
2023-04-15T06:56:59.736Z,101465.59
2023-04-15T06:59:28.448Z,101462.91
2023-04-15T07:01:57.197Z,101473.19
2023-04-15T07:04:26.125Z,101466.94
2023-04-15T07:06:57.241Z,101477.28
2023-04-15T07:09:26.868Z,101479.72
2023-04-15T07:11:55.704Z,101485.56
2023-04-15T07:14:24.170Z,101487.00
2023-04-15T07:16:52.755Z,101486.09
2023-04-15T07:19:22.382Z,101489.34
2023-04-15T07:21:58.615Z,101494.88
2023-04-15T07:24:27.063Z,101505.78
2023-04-15T07:27:01.048Z,101504.66
2023-04-15T07:29:29.797Z,101508.56
2023-04-15T07:31:58.571Z,101505.72
2023-04-15T07:34:27.254Z,101515.94
2023-04-15T07:36:59.961Z,101518.25
2023-04-15T07:39:30.065Z,101518.75
2023-04-15T07:41:59.344Z,101527.53
2023-04-15T07:44:28.313Z,101525.44
2023-04-15T07:46:58.586Z,101530.09
2023-04-15T07:49:34.306Z,101527.47
2023-04-15T07:52:04.435Z,101529.69
2023-04-15T07:54:33.462Z,101531.19
2023-04-15T07:57:02.159Z,101538.84
2023-04-15T07:59:33.844Z,101540.94
2023-04-15T08:04:33.016Z,101531.72
2023-04-15T08:07:05.465Z,101531.19
2023-04-15T08:09:33.844Z,101543.69
2023-04-15T08:12:03.464Z,101542.41
2023-04-15T08:14:33.628Z,101537.78
2023-04-15T08:17:04.524Z,101531.41
2023-04-15T08:19:51.471Z,101530.81
2023-04-15T08:22:22.494Z,101530.34
2023-04-15T08:24:51.520Z,101533.31
2023-04-15T08:27:27.043Z,101530.63
2023-04-15T08:30:07.036Z,101537.28
2023-04-15T08:32:43.020Z,101532.56
2023-04-15T08:35:23.330Z,101531.47
2023-04-15T08:37:54.378Z,101527.69
2023-04-15T08:40:35.369Z,101533.28
2023-04-15T08:43:08.408Z,101529.94
2023-04-15T08:45:37.564Z,101534.50
2023-04-15T08:48:07.709Z,101532.13
2023-04-15T08:50:38.184Z,101538.31
2023-04-15T08:53:08.482Z,101534.50
2023-04-15T08:55:41.943Z,101532.31
2023-04-15T08:58:18.346Z,101534.50
2023-04-15T09:00:48.980Z,101549.78
2023-04-15T09:03:19.382Z,101544.06
2023-04-15T09:05:48.434Z,101544.09
2023-04-15T09:08:19.474Z,101546.22
2023-04-15T09:10:49.287Z,101533.56
2023-04-15T09:13:18.328Z,101536.72
2023-04-15T09:15:48.382Z,101540.78
2023-04-15T09:18:31.293Z,101535.66
2023-04-15T09:21:10.857Z,101541.75
2023-04-15T09:23:42.890Z,101534.94
2023-04-15T09:26:11.466Z,101532.19
2023-04-15T09:28:43.929Z,101540.25
2023-04-15T09:31:12.619Z,101536.53
2023-04-15T09:33:57.303Z,101536.25
2023-04-15T09:36:30.097Z,101536.00
2023-04-15T09:39:02.307Z,101533.47
2023-04-15T09:41:30.984Z,101540.16
2023-04-15T09:43:59.834Z,101533.22
2023-04-15T09:46:44.593Z,101530.94
2023-04-15T09:49:16.423Z,101534.53
2023-04-15T09:51:54.409Z,101533.72
2023-04-15T09:54:39.278Z,101530.31
2023-04-15T09:57:09.263Z,101534.09
2023-04-15T09:59:37.972Z,101531.97
2023-04-15T10:02:08.893Z,101528.84
2023-04-15T10:04:41.862Z,101523.16
2023-04-15T10:07:13.890Z,101532.69
2023-04-15T10:09:47.339Z,101529.44
2023-04-15T10:12:18.677Z,101528.66
2023-04-15T10:14:54.301Z,101514.69
2023-04-15T10:17:24.970Z,101523.00
2023-04-15T10:19:56.367Z,101525.03
2023-04-15T10:22:26.012Z,101532.53
2023-04-15T10:24:58.089Z,101522.66
2023-04-15T10:27:27.168Z,101517.78
2023-04-15T10:29:58.769Z,101515.28
2023-04-15T10:32:28.208Z,101517.81
2023-04-15T10:34:58.380Z,101517.56
2023-04-15T10:37:37.692Z,101512.88
2023-04-15T10:40:33.102Z,101514.44
2023-04-15T10:43:04.180Z,101522.88
2023-04-15T10:45:37.284Z,101517.25
2023-04-15T10:48:09.466Z,101515.84
2023-04-15T10:50:39.597Z,101525.78
2023-04-15T10:53:12.233Z,101520.69
2023-04-15T10:55:42.018Z,101525.88
2023-04-15T10:58:12.091Z,101512.06
2023-04-15T11:00:41.786Z,101517.81
2023-04-15T11:03:12.370Z,101518.94
2023-04-15T11:05:54.320Z,101522.16
2023-04-15T11:08:55.668Z,101527.38
2023-04-15T11:12:05.056Z,101526.50
2023-04-15T11:14:36.905Z,101519.13
2023-04-15T11:17:06.472Z,101519.00
2023-04-15T11:19:39.634Z,101524.75
2023-04-15T11:22:10.084Z,101518.03
2023-04-15T11:24:48.485Z,101512.94
2023-04-15T11:27:24.585Z,101511.91
2023-04-15T11:29:54.703Z,101506.44
2023-04-15T11:32:23.843Z,101507.00
2023-04-15T11:34:53.746Z,101520.13
2023-04-15T11:37:30.800Z,101517.44
2023-04-15T11:40:00.521Z,101527.00
2023-04-15T11:42:42.816Z,101527.47
2023-04-15T11:45:17.801Z,101531.69
2023-04-15T11:47:46.574Z,101528.00
2023-04-15T11:50:20.048Z,101530.53
2023-04-15T11:52:56.463Z,101535.72
2023-04-15T11:55:26.956Z,101535.78
2023-04-15T11:58:10.773Z,101530.47
2023-04-15T12:00:40.324Z,101533.34
2023-04-15T12:03:19.201Z,101532.44
2023-04-15T12:06:14.912Z,101531.31
2023-04-15T12:09:02.824Z,101525.31
2023-04-15T12:11:37.694Z,101523.69
2023-04-15T12:14:10.969Z,101526.06
2023-04-15T12:16:48.632Z,101520.06
2023-04-15T12:19:28.160Z,101523.84
2023-04-15T12:22:05.052Z,101520.44
2023-04-15T12:24:38.165Z,101525.91
2023-04-15T12:27:09.339Z,101531.44
2023-04-15T12:29:45.176Z,101526.50
2023-04-15T12:32:17.536Z,101536.09
2023-04-15T12:34:51.887Z,101539.31
2023-04-15T12:37:23.346Z,101543.72
2023-04-15T12:39:52.500Z,101546.53
2023-04-15T12:42:22.974Z,101544.66
2023-04-15T12:44:58.933Z,101540.06
2023-04-15T12:47:30.013Z,101541.97
2023-04-15T12:49:58.723Z,101548.16
2023-04-15T12:52:28.543Z,101544.31
2023-04-15T12:54:57.229Z,101545.47
2023-04-15T12:57:27.071Z,101549.34
2023-04-15T13:00:01.220Z,101549.09
2023-04-15T13:02:31.848Z,101540.09
2023-04-15T13:05:01.770Z,101531.13
2023-04-15T13:07:30.350Z,101538.91
2023-04-15T13:10:01.615Z,101532.72
2023-04-15T13:12:36.574Z,101538.19
2023-04-15T13:15:09.973Z,101545.38
2023-04-15T13:17:40.302Z,101551.88
2023-04-15T13:20:15.862Z,101543.16
2023-04-15T13:22:44.523Z,101552.13
2023-04-15T13:25:17.315Z,101544.00
2023-04-15T13:28:04.198Z,101545.63
2023-04-15T13:30:35.880Z,101539.84
2023-04-15T13:33:05.012Z,101542.22
2023-04-15T13:35:44.640Z,101547.75
2023-04-15T13:38:20.951Z,101546.47
2023-04-15T13:40:50.722Z,101544.31
2023-04-15T13:43:22.138Z,101550.19
2023-04-15T13:45:53.540Z,101538.53
2023-04-15T13:48:38.820Z,101537.09
2023-04-15T13:51:08.328Z,101539.13
2023-04-15T13:53:46.922Z,101537.59
2023-04-15T13:56:16.072Z,101529.56
2023-04-15T13:58:50.041Z,101532.50
2023-04-15T14:01:22.431Z,101533.56
2023-04-15T14:03:57.421Z,101526.59
2023-04-15T14:06:31.993Z,101529.84
2023-04-15T14:09:02.570Z,101525.72
2023-04-15T14:11:32.085Z,101522.94
2023-04-15T14:14:03.246Z,101522.81
2023-04-15T14:16:39.075Z,101521.25
2023-04-15T14:19:10.635Z,101518.88
2023-04-15T14:21:47.354Z,101523.22
2023-04-15T14:24:16.176Z,101521.84
2023-04-15T14:26:46.674Z,101512.91
2023-04-15T14:29:22.175Z,101517.63
2023-04-15T14:32:11.552Z,101519.63
2023-04-15T14:34:42.731Z,101521.69
2023-04-15T14:37:20.959Z,101513.59
2023-04-15T14:39:49.964Z,101511.31
2023-04-15T14:42:19.783Z,101513.78
2023-04-15T14:44:48.569Z,101514.28
2023-04-15T14:47:19.309Z,101517.25
2023-04-15T14:49:48.247Z,101520.66
2023-04-15T14:52:16.994Z,101520.69
2023-04-15T14:54:59.395Z,101524.31
2023-04-15T14:57:33.918Z,101537.19
2023-04-15T15:00:02.632Z,101535.53
2023-04-15T15:02:39.260Z,101537.69
2023-04-15T15:05:12.616Z,101531.66
2023-04-15T15:07:42.862Z,101530.31
2023-04-15T15:10:12.020Z,101529.13
2023-04-15T15:12:40.486Z,101532.16
2023-04-15T15:15:25.116Z,101535.66
2023-04-15T15:17:58.584Z,101542.41
2023-04-15T15:20:27.393Z,101547.56
2023-04-15T15:22:56.264Z,101542.63
2023-04-15T15:25:27.388Z,101540.53
2023-04-15T15:27:56.378Z,101539.91
2023-04-15T15:30:27.900Z,101543.94
2023-04-15T15:32:57.895Z,101539.34
2023-04-15T15:35:28.661Z,101543.28
2023-04-15T15:37:57.100Z,101550.94
2023-04-15T15:40:26.187Z,101550.56
2023-04-15T15:42:54.909Z,101550.50
2023-04-15T15:45:24.499Z,101548.81
2023-04-15T15:47:53.343Z,101546.47
2023-04-15T15:50:23.291Z,101557.00
2023-04-15T15:52:52.048Z,101546.59
2023-04-15T15:55:20.981Z,101543.81
2023-04-15T15:57:50.513Z,101542.56
2023-04-15T16:00:19.612Z,101554.78
2023-04-15T16:03:06.199Z,101545.94
2023-04-15T16:05:40.145Z,101543.94
2023-04-15T16:08:08.848Z,101544.78
2023-04-15T16:10:37.890Z,101541.22
2023-04-15T16:13:06.704Z,101544.78
2023-04-15T16:15:36.789Z,101531.53
2023-04-15T16:18:05.999Z,101539.97
2023-04-15T16:20:34.753Z,101540.78
2023-04-15T16:23:13.492Z,101550.56
2023-04-15T16:25:45.560Z,101546.41
2023-04-15T16:28:25.575Z,101544.94
2023-04-15T16:30:55.592Z,101548.03
2023-04-15T16:33:24.315Z,101553.03
2023-04-15T16:35:53.306Z,101543.81
2023-04-15T16:38:23.487Z,101546.47
2023-04-15T16:40:53.154Z,101540.94
2023-04-15T16:43:21.752Z,101537.13
2023-04-15T16:45:51.796Z,101534.09
2023-04-15T16:48:20.879Z,101544.56
2023-04-15T16:50:49.203Z,101549.06
2023-04-15T16:53:18.056Z,101547.28
2023-04-15T16:55:48.744Z,101545.88
2023-04-15T16:58:17.325Z,101546.44
2023-04-15T17:00:45.983Z,101541.47
2023-04-15T17:03:16.837Z,101541.88
2023-04-15T17:05:46.371Z,101548.91
2023-04-15T17:08:15.020Z,101549.03
2023-04-15T17:10:43.875Z,101553.22
2023-04-15T17:13:16.513Z,101548.88
2023-04-15T17:15:45.094Z,101560.31
2023-04-15T17:18:13.753Z,101543.78
2023-04-15T17:20:42.534Z,101535.34
2023-04-15T17:23:11.322Z,101540.44
2023-04-15T17:25:39.986Z,101534.59
2023-04-15T17:28:08.422Z,101533.59
2023-04-15T17:30:38.427Z,101542.69
2023-04-15T17:33:55.102Z,101528.44
2023-04-15T17:35:56.289Z,101521.31
2023-04-15T17:38:24.800Z,101522.72
2023-04-15T17:40:53.940Z,101524.88
2023-04-15T17:43:22.651Z,101535.72
2023-04-15T17:45:52.657Z,101528.56
2023-04-15T17:48:21.393Z,101521.16
2023-04-15T17:50:51.301Z,101531.19
2023-04-15T17:53:20.828Z,101524.03
2023-04-15T17:55:50.591Z,101535.78
2023-04-15T17:58:19.221Z,101539.78
2023-04-15T18:00:48.272Z,101547.91
2023-04-15T18:03:20.589Z,101555.09
2023-04-15T18:05:49.369Z,101549.03
2023-04-15T18:08:17.931Z,101541.72
2023-04-15T18:10:46.652Z,101541.06
2023-04-15T18:13:15.451Z,101545.22
2023-04-15T18:15:45.620Z,101549.66
2023-04-15T18:18:15.748Z,101544.69
2023-04-15T18:20:45.899Z,101545.31
2023-04-15T18:23:15.100Z,101538.31
2023-04-15T18:25:45.520Z,101537.81
2023-04-15T18:28:14.121Z,101538.56
2023-04-15T18:30:42.967Z,101543.00
2023-04-15T18:33:12.022Z,101535.38
2023-04-15T18:35:40.481Z,101531.47
2023-04-15T18:38:10.549Z,101528.81
2023-04-15T18:40:39.470Z,101531.00
2023-04-15T18:43:09.856Z,101539.91
2023-04-15T18:45:38.839Z,101545.19
2023-04-15T18:48:07.596Z,101549.94
2023-04-15T18:50:36.510Z,101556.88
2023-04-15T18:53:05.210Z,101554.63
2023-04-15T18:55:35.700Z,101548.78
2023-04-15T18:58:08.103Z,101551.00
2023-04-15T19:00:41.836Z,101552.22
2023-04-15T19:03:11.731Z,101553.75
2023-04-15T19:05:40.708Z,101548.47
2023-04-15T19:08:09.595Z,101543.56
2023-04-15T19:10:40.066Z,101541.88
2023-04-15T19:13:08.679Z,101546.31
2023-04-15T19:15:37.890Z,101547.72
2023-04-15T19:18:10.722Z,101550.25
2023-04-15T19:20:42.156Z,101544.88
2023-04-15T19:23:12.093Z,101558.28
2023-04-15T19:25:42.225Z,101549.88
2023-04-15T19:28:11.214Z,101549.72
2023-04-15T19:30:40.171Z,101557.31
2023-04-15T19:33:09.057Z,101569.19
2023-04-15T19:35:38.774Z,101582.50
2023-04-15T19:38:07.366Z,101581.44
2023-04-15T19:40:35.991Z,101581.16
2023-04-15T19:43:06.207Z,101584.75
2023-04-15T19:45:35.798Z,101590.03
2023-04-15T19:48:06.449Z,101588.78
2023-04-15T19:50:36.807Z,101591.97
2023-04-15T19:53:05.697Z,101593.94
2023-04-15T19:55:34.518Z,101607.34
2023-04-15T19:58:03.316Z,101618.66
2023-04-15T20:00:33.880Z,101618.66
2023-04-15T20:03:03.051Z,101624.88
2023-04-15T20:05:31.936Z,101637.22
2023-04-15T20:08:02.057Z,101651.25
2023-04-15T20:10:32.045Z,101655.78
2023-04-15T20:13:00.951Z,101666.34
2023-04-15T20:15:29.852Z,101678.28
2023-04-15T20:18:00.446Z,101684.75
2023-04-15T20:20:29.296Z,101678.03
2023-04-15T20:22:57.902Z,101657.47
2023-04-15T20:25:26.966Z,101666.41
2023-04-15T20:27:55.614Z,101666.50
2023-04-15T20:30:24.162Z,101676.47
2023-04-15T20:32:52.833Z,101684.78
2023-04-15T20:35:23.208Z,101678.78
2023-04-15T20:37:52.011Z,101675.59
2023-04-15T20:40:20.625Z,101672.47
2023-04-15T20:42:49.621Z,101694.81
2023-04-15T20:45:18.464Z,101692.63
2023-04-15T20:47:47.117Z,101686.41
2023-04-15T20:50:15.996Z,101687.19
2023-04-15T20:52:46.560Z,101680.88
2023-04-15T20:55:15.305Z,101692.09
2023-04-15T20:57:44.052Z,101688.03
2023-04-15T21:00:13.592Z,101676.69
2023-04-15T21:02:42.270Z,101683.75
2023-04-15T21:05:11.611Z,101685.56
2023-04-15T21:07:41.377Z,101689.63
2023-04-15T21:10:12.357Z,101674.41
2023-04-15T21:12:44.156Z,101680.31
2023-04-15T21:15:13.255Z,101680.38
2023-04-15T21:17:42.568Z,101682.94
2023-04-15T21:20:12.772Z,101682.94
2023-04-15T21:22:41.868Z,101690.06
2023-04-15T21:25:12.119Z,101692.69
2023-04-15T21:27:40.861Z,101691.69
2023-04-15T21:30:10.322Z,101694.06
2023-04-15T21:32:38.926Z,101687.19
2023-04-15T21:35:08.638Z,101687.75
2023-04-15T21:37:38.172Z,101681.38
2023-04-15T21:40:07.997Z,101700.25
2023-04-15T21:42:38.357Z,101711.50
2023-04-15T21:45:07.769Z,101705.22
2023-04-15T21:48:04.455Z,101707.75
2023-04-15T21:50:25.286Z,101699.69
2023-04-15T21:52:54.074Z,101695.34
2023-04-15T21:55:22.844Z,101696.78
2023-04-15T21:57:52.950Z,101700.09
2023-04-15T22:00:21.431Z,101701.72
2023-04-15T22:02:50.227Z,101692.97
2023-04-15T22:05:19.135Z,101679.53
2023-04-15T22:07:47.888Z,101691.09
2023-04-15T22:10:16.500Z,101683.09
2023-04-15T22:12:45.194Z,101689.31
2023-04-15T22:15:17.032Z,101690.16
2023-04-15T22:17:45.889Z,101689.31
2023-04-15T22:20:14.821Z,101692.09
2023-04-15T22:22:44.550Z,101690.06
2023-04-15T22:25:14.557Z,101676.78
2023-04-15T22:27:46.179Z,101687.34
2023-04-15T22:30:16.561Z,101681.56
2023-04-15T22:32:45.713Z,101675.28
2023-04-15T22:35:14.360Z,101677.28
2023-04-15T22:37:43.069Z,101670.53
2023-04-15T22:40:12.826Z,101670.09
2023-04-15T22:42:41.567Z,101664.88
2023-04-15T22:45:11.284Z,101673.66
2023-04-15T22:47:41.568Z,101685.13
2023-04-15T22:50:11.164Z,101674.75
2023-04-15T22:52:39.913Z,101680.88
2023-04-15T22:55:10.363Z,101689.38
2023-04-15T22:57:38.951Z,101689.03
2023-04-15T23:00:09.181Z,101698.13
2023-04-15T23:02:37.944Z,101695.25
2023-04-15T23:05:12.761Z,101692.34
2023-04-15T23:07:41.876Z,101696.03
2023-04-15T23:10:11.073Z,101698.50
2023-04-15T23:12:39.878Z,101695.09
2023-04-15T23:15:10.115Z,101700.34
2023-04-15T23:17:38.979Z,101701.13
2023-04-15T23:20:09.928Z,101697.56
2023-04-15T23:22:39.050Z,101701.03
2023-04-15T23:25:08.163Z,101702.75
2023-04-15T23:27:37.094Z,101695.78
2023-04-15T23:30:06.473Z,101697.47
2023-04-15T23:32:35.195Z,101700.78
2023-04-15T23:35:05.046Z,101694.66
2023-04-15T23:37:35.114Z,101703.69
2023-04-15T23:40:03.942Z,101697.97
2023-04-15T23:42:32.522Z,101698.56
2023-04-15T23:45:01.191Z,101699.44
2023-04-15T23:47:30.144Z,101694.25
2023-04-15T23:49:58.479Z,101695.69
2023-04-15T23:52:27.095Z,101692.47
2023-04-15T23:54:57.168Z,101688.72
2023-04-15T23:57:26.144Z,101691.09
2023-04-15T23:59:54.946Z,101684.63
